Time;durP1;ratioP1;P1;durP2;ratioP2;P2;SDS_P1;SDS_P2;PMS_P1;PMS_P2;Temp;Humidity;BMP_temperature;BMP_pressure;BME280_temperature;BME280_humidity;BME280_pressure;Samples;Min_cycle;Max_cycle;Signal;HPM_P1;HPM_P2
2023/12/30 00:13:03;;;;;;;17.30;8.10;;;;;;;9.13;100.00;99241.52;682195;1265;138693;-79
2023/12/30 00:28:08;;;;;;;11.40;6.00;;;;;;;9.09;100.00;99234.06;681980;1265;140789;-78
2023/12/30 00:43:13;;;;;;;11.40;6.90;;;;;;;9.26;100.00;99216.14;682112;1264;138809;-79
2023/12/30 00:58:18;;;;;;;11.00;6.40;;;;;;;9.27;100.00;99192.20;681907;1260;138980;-79
2023/12/30 01:13:23;;;;;;;14.80;8.00;;;;;;;9.16;100.00;99193.40;682150;1266;138341;-79
2023/12/30 01:28:27;;;;;;;17.70;9.80;;;;;;;9.44;100.00;99185.94;682018;1263;139410;-81
2023/12/30 01:43:31;;;;;;;16.30;8.70;;;;;;;9.58;100.00;99184.56;682165;1264;138879;-80
2023/12/30 01:58:38;;;;;;;50.00;21.50;;;;;;;9.54;99.86;99174.10;681917;1275;139872;-79
2023/12/30 02:13:43;;;;;;;69.10;23.80;;;;;;;9.35;100.00;99166.96;682136;1265;138344;-81
2023/12/30 02:28:49;;;;;;;11.70;7.70;;;;;;;9.16;100.00;99150.81;682018;1261;139479;-80
2023/12/30 02:43:59;;;;;;;14.30;6.40;;;;;;;9.22;100.00;99139.51;682144;1259;139400;-80
2023/12/30 02:59:04;;;;;;;23.10;10.30;;;;;;;9.13;100.00;99113.69;681970;1262;139299;-79
2023/12/30 03:14:08;;;;;;;9.70;4.40;;;;;;;8.98;100.00;99091.94;682209;1259;138862;-80
2023/12/30 03:29:12;;;;;;;7.40;3.30;;;;;;;8.89;100.00;99079.09;681984;1263;138943;-80
2023/12/30 03:44:16;;;;;;;3.80;2.60;;;;;;;8.83;100.00;99095.17;682076;1261;138748;-80
2023/12/30 03:59:20;;;;;;;3.10;1.50;;;;;;;8.66;100.00;99120.70;682067;1262;138482;-81
2023/12/30 04:14:24;;;;;;;3.40;2.10;;;;;;;8.45;100.00;99109.15;681792;1261;138520;-81
2023/12/30 04:29:28;;;;;;;2.30;1.50;;;;;;;8.31;100.00;99099.92;682112;1269;138437;-81
2023/12/30 04:44:33;;;;;;;3.10;1.90;;;;;;;8.20;100.00;99087.91;682039;1259;139893;-80
2023/12/30 04:59:37;;;;;;;11.00;4.40;;;;;;;8.15;100.00;99132.23;682073;1265;138547;-80
2023/12/30 05:14:40;;;;;;;4.10;1.50;;;;;;;8.13;100.00;99144.30;681965;1262;138786;-80
2023/12/30 05:29:44;;;;;;;4.00;1.60;;;;;;;7.99;100.00;99153.28;682043;1263;139023;-79
2023/12/30 05:44:48;;;;;;;3.50;1.60;;;;;;;7.87;100.00;99173.91;682034;1263;138600;-79
2023/12/30 05:59:53;;;;;;;1.90;1.20;;;;;;;7.76;100.00;99201.36;682058;1262;138377;-80
2023/12/30 06:14:57;;;;;;;9.30;6.30;;;;;;;7.74;100.00;99194.23;681909;1264;139213;-79
2023/12/30 06:30:05;;;;;;;6.20;3.90;;;;;;;7.78;100.00;99207.23;682099;1263;139151;-79
2023/12/30 06:45:09;;;;;;;12.30;4.90;;;;;;;7.77;100.00;99215.20;681963;1260;138586;-79
2023/12/30 07:00:14;;;;;;;13.40;10.20;;;;;;;7.75;100.00;99231.41;682072;1265;138738;-79
2023/12/30 07:15:17;;;;;;;7.20;4.90;;;;;;;7.97;100.00;99237.72;681997;1265;139101;-80
2023/12/30 07:30:22;;;;;;;9.00;4.30;;;;;;;8.00;100.00;99258.58;681998;1263;138561;-79
2023/12/30 07:45:26;;;;;;;9.80;5.30;;;;;;;8.05;100.00;99278.83;681770;1264;138634;-80
2023/12/30 08:00:31;;;;;;;12.30;6.30;;;;;;;8.13;100.00;99314.08;682021;1265;140157;-80
2023/12/30 08:15:35;;;;;;;17.50;10.30;;;;;;;8.10;100.00;99327.28;682062;1264;139908;-79
2023/12/30 08:30:41;;;;;;;22.10;11.50;;;;;;;8.18;100.00;99338.36;682044;1262;139026;-82
2023/12/30 08:45:45;;;;;;;196.30;80.50;;;;;;;8.35;100.00;99345.16;682009;1264;138778;-81
2023/12/30 09:00:52;;;;;;;50.10;21.60;;;;;;;8.37;100.00;99375.60;682178;1263;139279;-81
2023/12/30 09:15:57;;;;;;;35.90;19.90;;;;;;;8.36;100.00;99384.27;681810;1264;179382;-80
2023/12/30 09:31:01;;;;;;;63.60;23.10;;;;;;;8.60;100.00;99379.30;682036;1264;140508;-81
2023/12/30 09:46:06;;;;;;;173.10;54.70;;;;;;;8.63;100.00;99381.48;681953;1264;138841;-81
2023/12/30 10:01:12;;;;;;;55.80;22.60;;;;;;;8.62;100.00;99365.84;682114;1263;138799;-82
2023/12/30 10:16:19;;;;;;;30.40;14.10;;;;;;;8.79;100.00;99366.02;682042;1264;139315;-84
2023/12/30 10:31:23;;;;;;;15.10;6.90;;;;;;;8.90;100.00;99357.45;682097;1265;139785;-81
2023/12/30 10:46:27;;;;;;;9.10;5.10;;;;;;;9.00;95.69;99369.40;681995;1265;138583;-82
2023/12/30 11:01:33;;;;;;;30.00;12.00;;;;;;;8.94;92.43;99385.13;682202;1265;138604;-82
2023/12/30 11:16:37;;;;;;;9.80;4.30;;;;;;;8.75;91.02;99397.02;682006;1264;139435;-80
2023/12/30 11:31:44;;;;;;;11.90;5.40;;;;;;;8.44;91.12;99423.05;682161;1266;138128;-79
2023/12/30 11:46:49;;;;;;;10.90;5.20;;;;;;;8.74;90.23;99449.29;682063;1267;138265;-80
2023/12/30 12:02:08;;;;;;;7.30;4.00;;;;;;;8.53;89.99;99473.71;682171;1264;138859;-78
2023/12/30 12:17:13;;;;;;;28.60;15.60;;;;;;;8.63;90.14;99480.66;682019;1264;138545;-80
2023/12/30 12:32:21;;;;;;;20.80;8.30;;;;;;;8.65;90.41;99510.21;681965;1264;139149;-80
2023/12/30 12:47:25;;;;;;;36.20;17.20;;;;;;;8.65;90.26;99526.12;682105;1265;138211;-81
2023/12/30 13:02:29;;;;;;;23.10;11.70;;;;;;;8.49;91.13;99547.90;681914;1261;139393;-82
2023/12/30 13:17:34;;;;;;;83.80;54.50;;;;;;;8.46;91.50;99560.21;681952;1263;138618;-81
2023/12/30 13:32:38;;;;;;;79.80;32.00;;;;;;;8.53;90.91;99579.17;681829;1266;138684;-81
2023/12/30 14:02:49;;;;;;;24.80;11.90;;;;;;;9.46;90.49;99606.70;681836;1261;138800;-81
2023/12/30 14:17:57;;;;;;;43.80;22.30;;;;;;;9.35;88.48;99619.45;681821;1261;138524;-80
2023/12/30 14:33:02;;;;;;;51.10;21.00;;;;;;;9.15;89.10;99637.80;681817;1265;139258;-80
2023/12/30 14:48:07;;;;;;;442.20;240.70;;;;;;;8.81;86.50;99655.05;681918;1265;139436;-82
2023/12/30 15:03:12;;;;;;;37.50;15.20;;;;;;;8.29;87.97;99676.35;681870;1264;139436;-83
2023/12/30 15:18:24;;;;;;;24.50;8.70;;;;;;;7.75;88.99;99684.88;681853;1264;139987;-81
2023/12/30 15:33:30;;;;;;;59.90;18.70;;;;;;;7.75;90.07;99706.30;681877;1261;138636;-83
2023/12/30 15:48:36;;;;;;;60.60;17.30;;;;;;;7.59;91.96;99729.89;682140;1261;139584;-82
2023/12/30 16:03:40;;;;;;;44.40;17.10;;;;;;;7.50;92.16;99750.02;681790;1261;138727;-82
2023/12/30 16:18:47;;;;;;;34.20;10.80;;;;;;;7.39;93.95;99758.67;681900;1264;138985;-82
2023/12/30 16:33:51;;;;;;;;;;;;;;;7.14;95.20;99765.09;681888;1265;141343;-82
2023/12/30 16:48:55;;;;;;;218.90;75.60;;;;;;;7.02;97.18;99784.48;681995;1262;125232;-82
2023/12/30 17:04:00;;;;;;;82.50;30.40;;;;;;;7.09;97.82;99783.44;681783;1264;139160;-82
2023/12/30 17:19:06;;;;;;;86.70;34.00;;;;;;;7.00;97.65;99795.11;681928;1265;138791;-82
2023/12/30 17:34:10;;;;;;;42.90;16.20;;;;;;;6.96;97.45;99818.69;681781;1262;138590;-82
2023/12/30 17:49:15;;;;;;;107.50;33.90;;;;;;;7.04;97.81;99833.04;681865;1260;139001;-82
2023/12/30 18:04:19;;;;;;;100.30;29.30;;;;;;;6.99;97.34;99856.19;681934;1260;140033;-83
2023/12/30 18:19:23;;;;;;;76.30;23.60;;;;;;;6.81;97.97;99901.95;682004;1260;139944;-81
2023/12/30 18:34:26;;;;;;;17.00;7.80;;;;;;;6.82;98.42;99900.46;682032;1265;139065;-81
2023/12/30 18:49:30;;;;;;;62.20;21.30;;;;;;;6.63;98.51;99888.41;682052;1261;139241;-82
2023/12/30 19:04:34;;;;;;;44.00;15.90;;;;;;;6.42;97.74;99917.05;681841;1262;138502;-82
2023/12/30 19:19:40;;;;;;;99.60;31.00;;;;;;;6.15;97.39;99941.34;682002;1259;138886;-82
2023/12/30 19:34:44;;;;;;;97.50;29.10;;;;;;;5.93;96.67;99947.81;681893;1265;138619;-81
2023/12/30 19:49:47;;;;;;;222.00;60.60;;;;;;;5.66;97.15;99977.54;681911;1262;138841;-81
2023/12/30 20:04:52;;;;;;;98.70;33.60;;;;;;;5.63;97.70;100003.43;681616;1261;139023;-82
2023/12/30 20:19:56;;;;;;;113.50;35.30;;;;;;;5.61;98.19;100011.02;682034;1262;139201;-82
2023/12/30 20:35:05;;;;;;;47.80;17.40;;;;;;;5.59;97.34;100023.52;682085;1261;139413;-82
2023/12/30 20:50:08;;;;;;;48.10;17.60;;;;;;;5.29;96.98;100029.57;682029;1262;139284;-82
2023/12/30 21:05:13;;;;;;;34.00;16.50;;;;;;;4.89;97.01;100048.09;681805;1262;139795;-82
2023/12/30 21:20:17;;;;;;;27.90;15.40;;;;;;;4.54;97.11;100056.68;681779;1261;163787;-82
2023/12/30 21:35:21;;;;;;;66.70;30.10;;;;;;;4.68;97.37;100073.40;682083;1262;139481;-82
2023/12/30 21:50:25;;;;;;;33.30;18.90;;;;;;;4.91;98.60;100090.63;681905;1262;139529;-81
2023/12/30 22:05:30;;;;;;;21.80;9.50;;;;;;;4.89;99.45;100101.95;682120;1262;138713;-82
2023/12/30 22:20:36;;;;;;;17.70;8.90;;;;;;;5.14;99.77;100105.89;682088;1265;139153;-82
2023/12/30 22:35:39;;;;;;;18.80;7.50;;;;;;;4.98;99.70;100132.57;682209;1260;139584;-81
2023/12/30 22:50:45;;;;;;;18.00;8.00;;;;;;;5.03;99.50;100145.98;682062;1264;139415;-81
2023/12/30 23:05:48;;;;;;;19.80;9.10;;;;;;;4.87;99.27;100149.92;682091;1264;138857;-82
2023/12/30 23:20:52;;;;;;;17.20;8.20;;;;;;;4.45;99.70;100151.14;682171;1265;139290;-82
2023/12/30 23:35:56;;;;;;;17.40;7.70;;;;;;;4.29;99.77;100166.01;682101;1263;138712;-81
2023/12/30 23:51:00;;;;;;;18.40;8.50;;;;;;;4.20;99.90;100155.98;682031;1263;138683;-82
